ENKR

Kirkenes , Høybuktmoen Airport

Kirkenes, Norway
TAF ENKR 221400Z 2215/2224 18010KT 9999 FEW010 BKN040
Issued Valid From Valid To
Sep-22 @ 14:00 UTC
(59 minutes ago)
Sep-22 @ 15:00 UTC
(in a few seconds)
Sep-23 @ 00:00 UTC
(in 9 hours)
to
TAF ENKR 221400Z 2215/2224 18010KT 9999 FEW010 BKN040
Issued Sep-22 @ 14:00 UTC
(59 minutes ago)
Valid From Sep-22 @ 15:00 UTC
(in a few seconds)
Valid To Sep-23 @ 00:00 UTC
(in 9 hours)
-